sensor_id;sensor_type;location;lat;lon;timestamp;temperature;humidity
54824;DHT22;40724;53.196;5.980;2023-02-11T00:02:25;5.70;99.90
54824;DHT22;40724;53.196;5.980;2023-02-11T00:04:54;5.70;99.90
54824;DHT22;40724;53.196;5.980;2023-02-11T00:07:20;5.70;99.90
54824;DHT22;40724;53.196;5.980;2023-02-11T00:09:45;5.70;99.90
54824;DHT22;40724;53.196;5.980;2023-02-11T00:12:11;5.70;99.90
54824;DHT22;40724;53.196;5.980;2023-02-11T00:14:37;5.70;99.90
54824;DHT22;40724;53.196;5.980;2023-02-11T00:17:03;5.70;99.90
54824;DHT22;40724;53.196;5.980;2023-02-11T00:19:28;5.70;99.90
54824;DHT22;40724;53.196;5.980;2023-02-11T00:21:54;5.70;99.90
54824;DHT22;40724;53.196;5.980;2023-02-11T00:24:20;5.60;99.90
54824;DHT22;40724;53.196;5.980;2023-02-11T00:26:45;5.60;99.90
54824;DHT22;40724;53.196;5.980;2023-02-11T00:29:11;5.60;99.90
54824;DHT22;40724;53.196;5.980;2023-02-11T00:31:37;5.60;99.90
54824;DHT22;40724;53.196;5.980;2023-02-11T00:34:03;5.60;99.90
54824;DHT22;40724;53.196;5.980;2023-02-11T00:36:29;5.60;99.90
54824;DHT22;40724;53.196;5.980;2023-02-11T00:38:56;5.60;99.90
54824;DHT22;40724;53.196;5.980;2023-02-11T00:41:22;5.70;99.90
54824;DHT22;40724;53.196;5.980;2023-02-11T00:43:48;5.70;99.90
54824;DHT22;40724;53.196;5.980;2023-02-11T00:46:14;5.70;99.90
54824;DHT22;40724;53.196;5.980;2023-02-11T00:48:40;5.80;99.90
54824;DHT22;40724;53.196;5.980;2023-02-11T00:51:07;5.80;99.90
54824;DHT22;40724;53.196;5.980;2023-02-11T00:53:33;5.80;99.90
54824;DHT22;40724;53.196;5.980;2023-02-11T00:55:59;5.80;99.90
54824;DHT22;40724;53.196;5.980;2023-02-11T00:58:26;5.90;99.90
54824;DHT22;40724;53.196;5.980;2023-02-11T01:00:53;5.90;99.90
54824;DHT22;40724;53.196;5.980;2023-02-11T01:03:18;5.90;99.90
54824;DHT22;40724;53.196;5.980;2023-02-11T01:05:44;6.00;99.90
54824;DHT22;40724;53.196;5.980;2023-02-11T01:08:10;6.00;99.90
54824;DHT22;40724;53.196;5.980;2023-02-11T01:10:36;6.00;99.90
54824;DHT22;40724;53.196;5.980;2023-02-11T01:13:02;6.00;99.90
54824;DHT22;40724;53.196;5.980;2023-02-11T01:15:29;6.10;99.90
54824;DHT22;40724;53.196;5.980;2023-02-11T01:17:54;6.10;99.90
54824;DHT22;40724;53.196;5.980;2023-02-11T01:20:23;6.10;99.90
54824;DHT22;40724;53.196;5.980;2023-02-11T01:22:49;6.20;99.90
54824;DHT22;40724;53.196;5.980;2023-02-11T01:25:15;6.20;99.90
54824;DHT22;40724;53.196;5.980;2023-02-11T01:27:41;6.20;99.90
54824;DHT22;40724;53.196;5.980;2023-02-11T01:30:08;6.20;99.90
54824;DHT22;40724;53.196;5.980;2023-02-11T01:32:34;6.30;99.90
54824;DHT22;40724;53.196;5.980;2023-02-11T01:35:00;6.30;99.90
54824;DHT22;40724;53.196;5.980;2023-02-11T01:37:26;6.30;99.90
54824;DHT22;40724;53.196;5.980;2023-02-11T01:39:52;6.40;99.90
54824;DHT22;40724;53.196;5.980;2023-02-11T01:42:21;6.40;99.90
54824;DHT22;40724;53.196;5.980;2023-02-11T01:44:51;6.40;99.90
54824;DHT22;40724;53.196;5.980;2023-02-11T01:47:18;6.40;99.90
54824;DHT22;40724;53.196;5.980;2023-02-11T01:49:47;6.40;99.90
54824;DHT22;40724;53.196;5.980;2023-02-11T01:54:52;6.50;99.90
54824;DHT22;40724;53.196;5.980;2023-02-11T01:57:39;6.50;99.90
54824;DHT22;40724;53.196;5.980;2023-02-11T02:00:36;6.50;99.90
54824;DHT22;40724;53.196;5.980;2023-02-11T02:03:12;6.50;99.90
54824;DHT22;40724;53.196;5.980;2023-02-11T02:08:18;6.60;99.90
54824;DHT22;40724;53.196;5.980;2023-02-11T02:10:48;6.60;99.90
54824;DHT22;40724;53.196;5.980;2023-02-11T02:52:25;6.70;99.90
54824;DHT22;40724;53.196;5.980;2023-02-11T02:55:00;6.90;99.90
54824;DHT22;40724;53.196;5.980;2023-02-11T03:16:25;7.00;99.90
54824;DHT22;40724;53.196;5.980;2023-02-11T03:19:21;7.20;99.90
54824;DHT22;40724;53.196;5.980;2023-02-11T03:21:49;7.20;99.90
54824;DHT22;40724;53.196;5.980;2023-02-11T03:24:20;7.20;99.90
54824;DHT22;40724;53.196;5.980;2023-02-11T03:26:49;7.20;99.90
54824;DHT22;40724;53.196;5.980;2023-02-11T03:29:42;7.20;99.90
54824;DHT22;40724;53.196;5.980;2023-02-11T03:32:38;7.20;99.90
54824;DHT22;40724;53.196;5.980;2023-02-11T03:35:20;7.20;99.90
54824;DHT22;40724;53.196;5.980;2023-02-11T03:37:56;7.20;99.90
54824;DHT22;40724;53.196;5.980;2023-02-11T03:40:39;7.20;99.90
54824;DHT22;40724;53.196;5.980;2023-02-11T03:43:17;7.30;99.90
54824;DHT22;40724;53.196;5.980;2023-02-11T03:45:46;7.30;99.90
54824;DHT22;40724;53.196;5.980;2023-02-11T03:48:14;7.30;99.90
54824;DHT22;40724;53.196;5.980;2023-02-11T03:50:41;7.30;99.90
54824;DHT22;40724;53.196;5.980;2023-02-11T03:53:08;7.30;99.90
54824;DHT22;40724;53.196;5.980;2023-02-11T03:55:37;7.30;99.90
54824;DHT22;40724;53.196;5.980;2023-02-11T03:58:04;7.30;99.90
54824;DHT22;40724;53.196;5.980;2023-02-11T04:00:32;7.30;99.90
54824;DHT22;40724;53.196;5.980;2023-02-11T04:02:59;7.40;99.90
54824;DHT22;40724;53.196;5.980;2023-02-11T04:05:25;7.30;99.90
54824;DHT22;40724;53.196;5.980;2023-02-11T04:07:50;7.40;99.90
54824;DHT22;40724;53.196;5.980;2023-02-11T04:10:16;7.40;99.90
54824;DHT22;40724;53.196;5.980;2023-02-11T04:12:42;7.40;99.90
54824;DHT22;40724;53.196;5.980;2023-02-11T04:15:08;7.40;99.90
54824;DHT22;40724;53.196;5.980;2023-02-11T04:17:34;7.40;99.90
54824;DHT22;40724;53.196;5.980;2023-02-11T04:20:00;7.40;99.90
54824;DHT22;40724;53.196;5.980;2023-02-11T04:22:26;7.40;99.90
54824;DHT22;40724;53.196;5.980;2023-02-11T04:24:52;7.40;99.90
54824;DHT22;40724;53.196;5.980;2023-02-11T04:27:18;7.40;99.90
54824;DHT22;40724;53.196;5.980;2023-02-11T04:29:43;7.40;99.90
54824;DHT22;40724;53.196;5.980;2023-02-11T04:32:10;7.40;99.90
54824;DHT22;40724;53.196;5.980;2023-02-11T04:34:36;7.40;99.90
54824;DHT22;40724;53.196;5.980;2023-02-11T04:37:02;7.40;99.90
54824;DHT22;40724;53.196;5.980;2023-02-11T04:39:28;7.40;99.90
54824;DHT22;40724;53.196;5.980;2023-02-11T04:41:54;7.40;99.90
54824;DHT22;40724;53.196;5.980;2023-02-11T04:44:20;7.40;99.90
54824;DHT22;40724;53.196;5.980;2023-02-11T04:46:46;7.40;99.90
54824;DHT22;40724;53.196;5.980;2023-02-11T04:49:13;7.40;99.90
54824;DHT22;40724;53.196;5.980;2023-02-11T04:51:40;7.40;99.90
54824;DHT22;40724;53.196;5.980;2023-02-11T04:54:05;7.40;99.90
54824;DHT22;40724;53.196;5.980;2023-02-11T04:56:31;7.50;99.90
54824;DHT22;40724;53.196;5.980;2023-02-11T04:58:57;7.40;99.90
54824;DHT22;40724;53.196;5.980;2023-02-11T05:01:23;7.50;99.90
54824;DHT22;40724;53.196;5.980;2023-02-11T05:03:49;7.40;99.90
54824;DHT22;40724;53.196;5.980;2023-02-11T05:06:16;7.40;99.90
54824;DHT22;40724;53.196;5.980;2023-02-11T05:08:42;7.50;99.90
54824;DHT22;40724;53.196;5.980;2023-02-11T05:11:15;7.50;99.90
54824;DHT22;40724;53.196;5.980;2023-02-11T05:13:42;7.50;99.90
54824;DHT22;40724;53.196;5.980;2023-02-11T05:16:08;7.50;99.90
54824;DHT22;40724;53.196;5.980;2023-02-11T05:18:36;7.50;99.90
54824;DHT22;40724;53.196;5.980;2023-02-11T05:21:07;7.50;99.90
54824;DHT22;40724;53.196;5.980;2023-02-11T05:23:33;7.50;99.90
54824;DHT22;40724;53.196;5.980;2023-02-11T05:25:59;7.50;99.90
54824;DHT22;40724;53.196;5.980;2023-02-11T05:28:25;7.50;99.90
54824;DHT22;40724;53.196;5.980;2023-02-11T05:30:51;7.50;99.90
54824;DHT22;40724;53.196;5.980;2023-02-11T05:33:16;7.50;99.90
54824;DHT22;40724;53.196;5.980;2023-02-11T05:35:42;7.50;99.90
54824;DHT22;40724;53.196;5.980;2023-02-11T05:38:08;7.50;99.90
54824;DHT22;40724;53.196;5.980;2023-02-11T05:40:34;7.50;99.90
54824;DHT22;40724;53.196;5.980;2023-02-11T05:43:00;7.50;99.90
54824;DHT22;40724;53.196;5.980;2023-02-11T05:45:27;7.50;99.90
54824;DHT22;40724;53.196;5.980;2023-02-11T05:47:52;7.50;99.90
54824;DHT22;40724;53.196;5.980;2023-02-11T05:50:19;7.50;99.90
54824;DHT22;40724;53.196;5.980;2023-02-11T05:52:44;7.50;99.90
54824;DHT22;40724;53.196;5.980;2023-02-11T05:55:10;7.50;99.90
54824;DHT22;40724;53.196;5.980;2023-02-11T05:57:36;7.50;99.90
54824;DHT22;40724;53.196;5.980;2023-02-11T06:00:03;7.50;99.90
54824;DHT22;40724;53.196;5.980;2023-02-11T06:02:29;7.50;99.90
54824;DHT22;40724;53.196;5.980;2023-02-11T06:04:55;7.50;99.90
54824;DHT22;40724;53.196;5.980;2023-02-11T06:07:20;7.50;99.90
54824;DHT22;40724;53.196;5.980;2023-02-11T06:09:46;7.50;99.90
54824;DHT22;40724;53.196;5.980;2023-02-11T06:12:12;7.50;99.90
54824;DHT22;40724;53.196;5.980;2023-02-11T06:14:38;7.50;99.90
54824;DHT22;40724;53.196;5.980;2023-02-11T06:17:03;7.40;99.90
54824;DHT22;40724;53.196;5.980;2023-02-11T06:19:29;7.40;99.90
54824;DHT22;40724;53.196;5.980;2023-02-11T06:21:56;7.40;99.90
54824;DHT22;40724;53.196;5.980;2023-02-11T06:24:22;7.40;99.90
54824;DHT22;40724;53.196;5.980;2023-02-11T06:26:48;7.40;99.90
54824;DHT22;40724;53.196;5.980;2023-02-11T06:29:15;7.30;99.90
54824;DHT22;40724;53.196;5.980;2023-02-11T06:31:40;7.30;99.90
54824;DHT22;40724;53.196;5.980;2023-02-11T06:34:07;7.30;99.90
54824;DHT22;40724;53.196;5.980;2023-02-11T06:36:34;7.30;99.90
54824;DHT22;40724;53.196;5.980;2023-02-11T06:39:00;7.30;99.90
54824;DHT22;40724;53.196;5.980;2023-02-11T06:41:26;7.20;99.90
54824;DHT22;40724;53.196;5.980;2023-02-11T06:43:52;7.20;99.90
54824;DHT22;40724;53.196;5.980;2023-02-11T06:46:18;7.20;99.90
54824;DHT22;40724;53.196;5.980;2023-02-11T06:48:44;7.20;99.90
54824;DHT22;40724;53.196;5.980;2023-02-11T06:51:11;7.20;99.90
54824;DHT22;40724;53.196;5.980;2023-02-11T06:53:42;7.20;99.90
54824;DHT22;40724;53.196;5.980;2023-02-11T06:56:11;7.20;99.90
54824;DHT22;40724;53.196;5.980;2023-02-11T06:58:38;7.20;99.90
54824;DHT22;40724;53.196;5.980;2023-02-11T07:01:10;7.20;99.90
54824;DHT22;40724;53.196;5.980;2023-02-11T07:03:37;7.20;99.90
54824;DHT22;40724;53.196;5.980;2023-02-11T07:06:05;7.20;99.90
54824;DHT22;40724;53.196;5.980;2023-02-11T07:08:35;7.30;99.90
54824;DHT22;40724;53.196;5.980;2023-02-11T07:11:11;7.20;99.90
54824;DHT22;40724;53.196;5.980;2023-02-11T07:13:37;7.20;99.90
54824;DHT22;40724;53.196;5.980;2023-02-11T07:16:07;7.30;99.90
54824;DHT22;40724;53.196;5.980;2023-02-11T07:18:33;7.30;99.90
54824;DHT22;40724;53.196;5.980;2023-02-11T07:21:03;7.30;99.90
54824;DHT22;40724;53.196;5.980;2023-02-11T07:23:29;7.30;99.90
54824;DHT22;40724;53.196;5.980;2023-02-11T07:25:55;7.30;99.90
54824;DHT22;40724;53.196;5.980;2023-02-11T07:28:21;7.30;99.90
54824;DHT22;40724;53.196;5.980;2023-02-11T07:30:47;7.30;99.90
54824;DHT22;40724;53.196;5.980;2023-02-11T07:33:12;7.30;99.90
54824;DHT22;40724;53.196;5.980;2023-02-11T07:35:38;7.40;99.90
54824;DHT22;40724;53.196;5.980;2023-02-11T07:38:04;7.30;99.90
54824;DHT22;40724;53.196;5.980;2023-02-11T07:40:30;7.30;99.90
54824;DHT22;40724;53.196;5.980;2023-02-11T07:42:56;7.30;99.90
54824;DHT22;40724;53.196;5.980;2023-02-11T07:45:22;7.40;99.90
54824;DHT22;40724;53.196;5.980;2023-02-11T07:47:49;7.30;99.90
54824;DHT22;40724;53.196;5.980;2023-02-11T07:50:16;7.40;99.90
54824;DHT22;40724;53.196;5.980;2023-02-11T07:52:42;7.40;99.90
54824;DHT22;40724;53.196;5.980;2023-02-11T07:55:08;7.40;99.90
54824;DHT22;40724;53.196;5.980;2023-02-11T07:57:34;7.40;99.90
54824;DHT22;40724;53.196;5.980;2023-02-11T08:00:01;7.40;99.90
54824;DHT22;40724;53.196;5.980;2023-02-11T08:02:27;7.40;99.90
54824;DHT22;40724;53.196;5.980;2023-02-11T08:04:52;7.40;99.90
54824;DHT22;40724;53.196;5.980;2023-02-11T08:07:18;7.40;99.90
54824;DHT22;40724;53.196;5.980;2023-02-11T08:09:44;7.40;99.90
54824;DHT22;40724;53.196;5.980;2023-02-11T08:12:10;7.40;99.90
54824;DHT22;40724;53.196;5.980;2023-02-11T08:14:36;7.40;99.90
54824;DHT22;40724;53.196;5.980;2023-02-11T08:17:02;7.40;99.90
54824;DHT22;40724;53.196;5.980;2023-02-11T08:19:28;7.40;99.90
54824;DHT22;40724;53.196;5.980;2023-02-11T08:21:54;7.40;99.90
54824;DHT22;40724;53.196;5.980;2023-02-11T08:24:21;7.40;99.90
54824;DHT22;40724;53.196;5.980;2023-02-11T08:26:47;7.40;99.90
54824;DHT22;40724;53.196;5.980;2023-02-11T08:29:14;7.50;99.90
54824;DHT22;40724;53.196;5.980;2023-02-11T08:31:41;7.40;99.90
54824;DHT22;40724;53.196;5.980;2023-02-11T08:34:08;7.40;99.90
54824;DHT22;40724;53.196;5.980;2023-02-11T08:36:37;7.50;99.90
54824;DHT22;40724;53.196;5.980;2023-02-11T08:39:05;7.50;99.90
54824;DHT22;40724;53.196;5.980;2023-02-11T08:41:32;7.50;99.90
54824;DHT22;40724;53.196;5.980;2023-02-11T08:43:58;7.50;99.90
54824;DHT22;40724;53.196;5.980;2023-02-11T09:06:06;7.60;99.90
54824;DHT22;40724;53.196;5.980;2023-02-11T09:08:36;7.80;99.90
54824;DHT22;40724;53.196;5.980;2023-02-11T09:11:03;7.80;99.90
54824;DHT22;40724;53.196;5.980;2023-02-11T09:13:30;7.90;99.90
54824;DHT22;40724;53.196;5.980;2023-02-11T09:15:56;7.90;99.90
54824;DHT22;40724;53.196;5.980;2023-02-11T09:18:22;7.90;99.90
54824;DHT22;40724;53.196;5.980;2023-02-11T09:20:48;7.90;99.90
54824;DHT22;40724;53.196;5.980;2023-02-11T09:23:14;7.90;99.90
54824;DHT22;40724;53.196;5.980;2023-02-11T09:25:40;7.90;99.90
54824;DHT22;40724;53.196;5.980;2023-02-11T09:28:07;8.00;99.90
54824;DHT22;40724;53.196;5.980;2023-02-11T09:30:35;8.00;99.90
54824;DHT22;40724;53.196;5.980;2023-02-11T09:33:01;8.00;99.90
54824;DHT22;40724;53.196;5.980;2023-02-11T09:35:27;8.00;99.90
54824;DHT22;40724;53.196;5.980;2023-02-11T09:37:53;8.10;99.90
54824;DHT22;40724;53.196;5.980;2023-02-11T09:40:19;8.10;99.90
54824;DHT22;40724;53.196;5.980;2023-02-11T09:43:13;8.10;99.90
54824;DHT22;40724;53.196;5.980;2023-02-11T09:45:41;8.10;99.90
54824;DHT22;40724;53.196;5.980;2023-02-11T09:48:25;8.10;99.90
54824;DHT22;40724;53.196;5.980;2023-02-11T09:50:54;8.20;99.90
54824;DHT22;40724;53.196;5.980;2023-02-11T09:53:26;8.20;99.90
54824;DHT22;40724;53.196;5.980;2023-02-11T09:56:00;8.20;99.90
54824;DHT22;40724;53.196;5.980;2023-02-11T09:58:34;8.20;99.90
54824;DHT22;40724;53.196;5.980;2023-02-11T10:01:29;8.20;99.90
54824;DHT22;40724;53.196;5.980;2023-02-11T10:06:57;8.30;99.90
54824;DHT22;40724;53.196;5.980;2023-02-11T10:22:54;8.40;99.90
54824;DHT22;40724;53.196;5.980;2023-02-11T10:25:32;8.40;99.90
54824;DHT22;40724;53.196;5.980;2023-02-11T10:28:01;8.50;99.90
54824;DHT22;40724;53.196;5.980;2023-02-11T10:30:42;8.40;99.90
54824;DHT22;40724;53.196;5.980;2023-02-11T10:35:43;8.50;99.90
54824;DHT22;40724;53.196;5.980;2023-02-11T10:38:10;8.50;99.90
54824;DHT22;40724;53.196;5.980;2023-02-11T10:40:36;8.60;99.90
54824;DHT22;40724;53.196;5.980;2023-02-11T10:43:04;8.60;99.90
54824;DHT22;40724;53.196;5.980;2023-02-11T10:45:32;8.60;99.90
54824;DHT22;40724;53.196;5.980;2023-02-11T10:47:59;8.70;99.90
54824;DHT22;40724;53.196;5.980;2023-02-11T10:50:31;8.80;99.90
54824;DHT22;40724;53.196;5.980;2023-02-11T10:53:19;8.80;99.90
54824;DHT22;40724;53.196;5.980;2023-02-11T10:55:54;8.90;99.90
54824;DHT22;40724;53.196;5.980;2023-02-11T16:46:44;9.40;99.90
54824;DHT22;40724;53.196;5.980;2023-02-11T16:49:21;8.60;99.90
54824;DHT22;40724;53.196;5.980;2023-02-11T16:51:53;8.60;99.90
54824;DHT22;40724;53.196;5.980;2023-02-11T16:54:22;8.50;99.90
54824;DHT22;40724;53.196;5.980;2023-02-11T16:56:48;8.50;99.90
54824;DHT22;40724;53.196;5.980;2023-02-11T16:59:14;8.50;99.90
54824;DHT22;40724;53.196;5.980;2023-02-11T17:01:41;8.50;99.90
54824;DHT22;40724;53.196;5.980;2023-02-11T17:04:28;8.40;99.90
54824;DHT22;40724;53.196;5.980;2023-02-11T17:06:54;8.40;99.90
54824;DHT22;40724;53.196;5.980;2023-02-11T17:09:23;8.40;99.90
54824;DHT22;40724;53.196;5.980;2023-02-11T17:11:50;8.40;99.90
54824;DHT22;40724;53.196;5.980;2023-02-11T17:14:16;8.30;99.90
54824;DHT22;40724;53.196;5.980;2023-02-11T17:16:43;8.30;99.90
54824;DHT22;40724;53.196;5.980;2023-02-11T17:19:14;8.30;99.90
54824;DHT22;40724;53.196;5.980;2023-02-11T17:21:41;8.20;99.90
54824;DHT22;40724;53.196;5.980;2023-02-11T17:24:07;8.20;99.90
54824;DHT22;40724;53.196;5.980;2023-02-11T17:26:33;8.20;99.90
54824;DHT22;40724;53.196;5.980;2023-02-11T17:29:04;8.10;99.90
54824;DHT22;40724;53.196;5.980;2023-02-11T17:31:30;8.10;99.90
54824;DHT22;40724;53.196;5.980;2023-02-11T17:33:57;8.00;99.90
54824;DHT22;40724;53.196;5.980;2023-02-11T17:36:22;7.90;99.90
54824;DHT22;40724;53.196;5.980;2023-02-11T17:38:48;7.90;99.90
54824;DHT22;40724;53.196;5.980;2023-02-11T17:41:15;7.80;99.90
54824;DHT22;40724;53.196;5.980;2023-02-11T17:43:41;7.80;99.90
54824;DHT22;40724;53.196;5.980;2023-02-11T17:46:07;7.70;99.90
54824;DHT22;40724;53.196;5.980;2023-02-11T17:48:36;7.60;99.90
54824;DHT22;40724;53.196;5.980;2023-02-11T17:51:23;7.60;99.90
54824;DHT22;40724;53.196;5.980;2023-02-11T17:53:49;7.50;99.90
54824;DHT22;40724;53.196;5.980;2023-02-11T17:56:14;7.50;99.90
54824;DHT22;40724;53.196;5.980;2023-02-11T17:58:40;7.50;99.90
54824;DHT22;40724;53.196;5.980;2023-02-11T18:01:06;7.40;99.90
54824;DHT22;40724;53.196;5.980;2023-02-11T18:03:32;7.40;99.90
54824;DHT22;40724;53.196;5.980;2023-02-11T18:59:50;7.20;99.90
54824;DHT22;40724;53.196;5.980;2023-02-11T19:02:17;6.60;99.90
54824;DHT22;40724;53.196;5.980;2023-02-11T19:04:43;6.60;99.90
54824;DHT22;40724;53.196;5.980;2023-02-11T19:07:09;6.60;99.90
54824;DHT22;40724;53.196;5.980;2023-02-11T19:24:23;6.50;99.90
54824;DHT22;40724;53.196;5.980;2023-02-11T19:26:50;6.40;99.90
54824;DHT22;40724;53.196;5.980;2023-02-11T19:29:17;6.30;99.90
54824;DHT22;40724;53.196;5.980;2023-02-11T19:31:43;6.30;99.90
54824;DHT22;40724;53.196;5.980;2023-02-11T19:34:10;6.20;99.90
54824;DHT22;40724;53.196;5.980;2023-02-11T19:36:36;6.30;99.90
54824;DHT22;40724;53.196;5.980;2023-02-11T19:39:03;6.30;99.90
54824;DHT22;40724;53.196;5.980;2023-02-11T19:41:30;6.30;99.90
54824;DHT22;40724;53.196;5.980;2023-02-11T19:43:56;6.30;99.90
54824;DHT22;40724;53.196;5.980;2023-02-11T19:46:23;6.20;99.90
54824;DHT22;40724;53.196;5.980;2023-02-11T19:58:38;6.20;99.90
54824;DHT22;40724;53.196;5.980;2023-02-11T20:01:14;6.00;99.90
54824;DHT22;40724;53.196;5.980;2023-02-11T20:03:41;6.00;99.90
54824;DHT22;40724;53.196;5.980;2023-02-11T20:06:21;6.00;99.90
54824;DHT22;40724;53.196;5.980;2023-02-11T20:11:19;6.00;99.90
54824;DHT22;40724;53.196;5.980;2023-02-11T20:13:45;6.00;99.90
54824;DHT22;40724;53.196;5.980;2023-02-11T20:16:13;6.00;99.90
54824;DHT22;40724;53.196;5.980;2023-02-11T20:18:41;6.00;99.90
54824;DHT22;40724;53.196;5.980;2023-02-11T20:21:13;6.00;99.90
54824;DHT22;40724;53.196;5.980;2023-02-11T20:23:39;5.90;99.90
54824;DHT22;40724;53.196;5.980;2023-02-11T20:26:16;5.90;99.90
54824;DHT22;40724;53.196;5.980;2023-02-11T20:28:43;5.90;99.90
54824;DHT22;40724;53.196;5.980;2023-02-11T20:31:09;5.90;99.90
54824;DHT22;40724;53.196;5.980;2023-02-11T20:33:36;5.90;99.90
54824;DHT22;40724;53.196;5.980;2023-02-11T20:36:05;5.90;99.90
54824;DHT22;40724;53.196;5.980;2023-02-11T20:38:31;5.80;99.90
54824;DHT22;40724;53.196;5.980;2023-02-11T20:41:18;5.80;99.90
54824;DHT22;40724;53.196;5.980;2023-02-11T20:43:46;5.80;99.90
54824;DHT22;40724;53.196;5.980;2023-02-11T20:46:16;5.70;99.90
54824;DHT22;40724;53.196;5.980;2023-02-11T20:48:42;5.60;99.90
54824;DHT22;40724;53.196;5.980;2023-02-11T21:08:38;5.70;99.90
54824;DHT22;40724;53.196;5.980;2023-02-11T21:11:04;5.50;99.90
54824;DHT22;40724;53.196;5.980;2023-02-11T21:13:36;5.40;99.90
54824;DHT22;40724;53.196;5.980;2023-02-11T21:16:03;5.50;99.90
54824;DHT22;40724;53.196;5.980;2023-02-11T21:40:28;5.40;99.90
54824;DHT22;40724;53.196;5.980;2023-02-11T22:19:37;5.30;99.90
54824;DHT22;40724;53.196;5.980;2023-02-11T22:22:03;5.10;99.90
54824;DHT22;40724;53.196;5.980;2023-02-11T22:24:29;5.00;99.90
54824;DHT22;40724;53.196;5.980;2023-02-11T22:26:55;5.00;99.90
54824;DHT22;40724;53.196;5.980;2023-02-11T22:34:13;5.00;99.90
54824;DHT22;40724;53.196;5.980;2023-02-11T22:36:40;5.00;99.90
54824;DHT22;40724;53.196;5.980;2023-02-11T22:39:10;5.00;99.90
54824;DHT22;40724;53.196;5.980;2023-02-11T22:41:36;5.00;99.90
54824;DHT22;40724;53.196;5.980;2023-02-11T22:44:03;5.00;99.90
54824;DHT22;40724;53.196;5.980;2023-02-11T22:46:29;5.00;99.90
